Time;durP1;ratioP1;P1;durP2;ratioP2;P2;SDS_P1;SDS_P2;PMS_P1;PMS_P2;Temp;Humidity;BMP_temperature;BMP_pressure;BME280_temperature;BME280_humidity;BME280_pressure;Samples;Min_cycle;Max_cycle;Signal;HPM_P1;HPM_P2
2020/12/25 00:00:22;;;;;;;3.95;2.83;;;;;;;;;;5013112;28;20045;-75
2020/12/25 00:02:49;;;;;;;3.72;2.85;;;;;;;;;;5012999;28;20528;-75
2020/12/25 00:05:15;;;;;;;5.07;3.00;;;;;;;;;;5012805;28;20125;-75
2020/12/25 00:07:41;;;;;;;4.78;3.17;;;;;;;;;;5012833;28;20026;-75
2020/12/25 00:10:07;;;;;;;5.80;3.00;;;;;;;;;;5013037;28;20022;-75
2020/12/25 00:12:33;;;;;;;4.78;2.67;;;;;;;;;;5011117;28;20025;-75
2020/12/25 00:14:59;;;;;;;7.38;2.85;;;;;;;;;;5010907;28;20088;-75
2020/12/25 00:17:25;;;;;;;6.38;3.40;;;;;;;;;;5013000;28;20077;-75
2020/12/25 00:19:51;;;;;;;5.55;2.90;;;;;;;;;;5012748;28;20025;-76
2020/12/25 00:22:17;;;;;;;4.68;3.25;;;;;;;;;;5012659;28;20049;-75
2020/12/25 00:24:43;;;;;;;4.25;2.75;;;;;;;;;;5012810;28;20026;-75
2020/12/25 00:27:09;;;;;;;4.63;2.78;;;;;;;;;;5012692;28;20040;-76
2020/12/25 00:29:35;;;;;;;8.20;3.25;;;;;;;;;;5012636;28;20029;-75
2020/12/25 00:32:01;;;;;;;5.88;3.33;;;;;;;;;;5012496;28;20022;-75
2020/12/25 00:34:27;;;;;;;4.05;2.80;;;;;;;;;;5012696;28;20022;-75
2020/12/25 00:36:54;;;;;;;6.00;3.10;;;;;;;;;;5012642;28;20022;-75
2020/12/25 00:39:20;;;;;;;7.25;3.25;;;;;;;;;;5012793;28;20121;-75
2020/12/25 00:41:48;;;;;;;8.98;3.25;;;;;;;;;;5012554;28;20061;-75
2020/12/25 00:44:14;;;;;;;5.68;2.70;;;;;;;;;;5012784;28;20034;-76
2020/12/25 00:46:40;;;;;;;5.15;3.33;;;;;;;;;;5012291;28;20037;-76
2020/12/25 00:49:06;;;;;;;6.88;3.63;;;;;;;;;;5012462;28;20441;-75
2020/12/25 00:51:32;;;;;;;5.80;4.03;;;;;;;;;;5012355;28;20092;-76
2020/12/25 00:53:58;;;;;;;5.50;3.38;;;;;;;;;;5012350;28;20061;-75
2020/12/25 00:56:24;;;;;;;5.03;3.10;;;;;;;;;;5015465;28;20474;-76
2020/12/25 00:58:51;;;;;;;5.07;3.47;;;;;;;;;;4998425;28;20046;-75
2020/12/25 01:01:17;;;;;;;6.22;3.30;;;;;;;;;;5016225;28;20054;-75
2020/12/25 01:03:44;;;;;;;5.68;2.97;;;;;;;;;;5016332;28;20354;-76
2020/12/25 01:06:10;;;;;;;7.45;3.10;;;;;;;;;;5016179;28;20057;-75
2020/12/25 01:08:36;;;;;;;7.65;3.92;;;;;;;;;;5016359;28;20401;-76
2020/12/25 01:11:02;;;;;;;7.20;3.20;;;;;;;;;;5016039;28;20100;-75
2020/12/25 01:13:28;;;;;;;7.05;3.50;;;;;;;;;;5016008;28;20386;-75
2020/12/25 01:15:54;;;;;;;5.00;3.22;;;;;;;;;;5016310;28;20462;-75
2020/12/25 01:18:20;;;;;;;5.60;3.50;;;;;;;;;;5015843;28;20022;-75
2020/12/25 01:20:46;;;;;;;5.07;3.05;;;;;;;;;;5015957;28;20022;-76
2020/12/25 01:23:12;;;;;;;6.45;3.42;;;;;;;;;;5015690;28;20018;-75
2020/12/25 01:25:38;;;;;;;7.13;3.42;;;;;;;;;;5015746;28;20033;-76
2020/12/25 01:28:04;;;;;;;7.78;4.53;;;;;;;;;;5015860;28;20108;-75
2020/12/25 01:30:30;;;;;;;5.57;3.92;;;;;;;;;;5015822;28;20022;-76
2020/12/25 01:32:56;;;;;;;7.72;3.90;;;;;;;;;;5015877;28;20026;-76
2020/12/25 01:35:22;;;;;;;6.28;4.18;;;;;;;;;;5015668;28;20037;-76
2020/12/25 01:37:48;;;;;;;6.13;3.80;;;;;;;;;;5015524;28;20018;-75
2020/12/25 01:40:14;;;;;;;7.55;3.80;;;;;;;;;;5015642;28;20022;-76
2020/12/25 01:42:40;;;;;;;5.65;3.72;;;;;;;;;;5015520;28;20025;-76
2020/12/25 01:45:06;;;;;;;8.20;4.18;;;;;;;;;;5015243;28;20025;-76
2020/12/25 01:47:32;;;;;;;7.85;4.05;;;;;;;;;;5015430;28;20033;-76
2020/12/25 01:49:59;;;;;;;9.73;4.20;;;;;;;;;;5015321;28;20030;-75
2020/12/25 01:52:25;;;;;;;8.07;4.38;;;;;;;;;;5015640;28;20413;-75
2020/12/25 01:54:52;;;;;;;5.30;3.83;;;;;;;;;;5015283;28;20108;-75
2020/12/25 01:57:18;;;;;;;7.82;4.07;;;;;;;;;;5015272;28;20026;-75
2020/12/25 01:59:44;;;;;;;7.22;4.03;;;;;;;;;;5015084;28;20069;-76
2020/12/25 02:02:10;;;;;;;8.85;4.20;;;;;;;;;;5015323;28;20402;-76
2020/12/25 02:04:36;;;;;;;6.57;4.35;;;;;;;;;;5015137;28;20077;-76
2020/12/25 02:07:02;;;;;;;7.35;4.00;;;;;;;;;;5013911;28;20432;-76
2020/12/25 02:09:29;;;;;;;8.82;3.67;;;;;;;;;;5015272;28;20045;-76
2020/12/25 02:11:55;;;;;;;9.43;3.92;;;;;;;;;;5015171;28;20088;-76
2020/12/25 02:14:21;;;;;;;10.48;4.50;;;;;;;;;;5015055;28;20080;-75
2020/12/25 02:16:47;;;;;;;6.78;4.32;;;;;;;;;;5015008;28;20060;-76
2020/12/25 02:19:14;;;;;;;6.88;3.83;;;;;;;;;;5014926;28;20025;-76
2020/12/25 02:21:40;;;;;;;6.90;4.15;;;;;;;;;;5014951;28;20497;-75
2020/12/25 02:24:08;;;;;;;7.90;4.05;;;;;;;;;;5014823;28;20029;-76
2020/12/25 02:26:34;;;;;;;8.43;4.40;;;;;;;;;;5015028;28;20042;-76
2020/12/25 02:29:00;;;;;;;8.98;4.43;;;;;;;;;;5014582;28;20018;-76
2020/12/25 02:31:26;;;;;;;8.27;3.97;;;;;;;;;;5014816;28;20029;-75
2020/12/25 02:33:52;;;;;;;6.63;3.92;;;;;;;;;;5014530;28;20500;-75
2020/12/25 02:36:18;;;;;;;9.20;4.57;;;;;;;;;;5014530;28;20105;-76
2020/12/25 02:38:44;;;;;;;9.02;4.47;;;;;;;;;;5014810;28;20053;-76
2020/12/25 02:41:10;;;;;;;7.43;4.65;;;;;;;;;;5014542;28;20022;-76
2020/12/25 02:43:36;;;;;;;6.63;4.30;;;;;;;;;;5014552;28;20068;-75
2020/12/25 02:46:02;;;;;;;9.35;4.10;;;;;;;;;;5014331;28;20033;-76
2020/12/25 02:48:28;;;;;;;6.25;3.67;;;;;;;;;;5014559;28;20080;-75
2020/12/25 02:50:54;;;;;;;8.38;4.55;;;;;;;;;;5014445;28;20026;-75
2020/12/25 02:53:20;;;;;;;7.53;4.65;;;;;;;;;;5014234;28;20026;-75
2020/12/25 02:55:47;;;;;;;8.48;4.13;;;;;;;;;;5014291;28;20549;-76
2020/12/25 02:58:13;;;;;;;6.22;3.78;;;;;;;;;;5014107;28;20504;-76
2020/12/25 03:00:39;;;;;;;6.97;4.38;;;;;;;;;;5014179;28;20060;-76
2020/12/25 03:03:05;;;;;;;8.10;4.35;;;;;;;;;;5014141;28;20485;-76
2020/12/25 03:05:31;;;;;;;7.47;4.18;;;;;;;;;;5014004;28;20030;-76
2020/12/25 03:07:57;;;;;;;9.48;4.28;;;;;;;;;;4996616;28;20026;-75
2020/12/25 03:10:23;;;;;;;7.07;3.90;;;;;;;;;;5014010;28;20029;-76
2020/12/25 03:12:49;;;;;;;9.32;4.30;;;;;;;;;;5013972;28;20025;-76
2020/12/25 03:15:15;;;;;;;6.32;3.50;;;;;;;;;;5013898;28;20113;-76
2020/12/25 03:17:41;;;;;;;6.75;4.13;;;;;;;;;;5013268;28;20026;-76
2020/12/25 03:20:07;;;;;;;8.10;4.15;;;;;;;;;;5013729;28;20448;-76
2020/12/25 03:22:33;;;;;;;8.70;4.07;;;;;;;;;;5013859;28;20030;-76
2020/12/25 03:24:59;;;;;;;5.78;3.60;;;;;;;;;;5013713;28;20497;-76
2020/12/25 03:27:25;;;;;;;5.60;3.80;;;;;;;;;;5013937;28;20381;-76
2020/12/25 03:29:52;;;;;;;7.28;4.18;;;;;;;;;;5013677;28;20025;-76
2020/12/25 03:32:18;;;;;;;6.55;3.97;;;;;;;;;;5013657;28;20081;-76
2020/12/25 03:34:44;;;;;;;6.32;3.88;;;;;;;;;;5013584;28;20347;-76
2020/12/25 03:37:10;;;;;;;7.65;4.38;;;;;;;;;;5013451;28;20025;-76
2020/12/25 03:39:36;;;;;;;7.70;4.28;;;;;;;;;;5013541;28;20028;-76
2020/12/25 03:42:02;;;;;;;7.43;3.83;;;;;;;;;;5013391;28;20030;-76
2020/12/25 03:44:28;;;;;;;7.68;4.43;;;;;;;;;;5013465;28;20084;-76
2020/12/25 03:46:54;;;;;;;7.20;4.25;;;;;;;;;;5013278;28;20084;-76
2020/12/25 03:49:20;;;;;;;7.85;4.10;;;;;;;;;;5013211;28;20045;-76
2020/12/25 03:51:46;;;;;;;7.28;4.18;;;;;;;;;;4995526;28;20458;-76
2020/12/25 03:54:12;;;;;;;7.72;4.25;;;;;;;;;;5013199;28;20022;-76
2020/12/25 03:56:38;;;;;;;7.22;4.20;;;;;;;;;;5013228;28;20026;-76
2020/12/25 03:59:04;;;;;;;5.97;3.72;;;;;;;;;;5012956;28;20042;-76
2020/12/25 04:01:30;;;;;;;6.88;3.63;;;;;;;;;;5013156;28;20022;-76
2020/12/25 04:03:56;;;;;;;5.90;3.88;;;;;;;;;;5013274;28;20018;-76
2020/12/25 04:06:22;;;;;;;5.57;3.95;;;;;;;;;;5013079;28;20033;-76
2020/12/25 04:08:48;;;;;;;5.75;3.78;;;;;;;;;;5012976;28;20025;-76
2020/12/25 04:11:14;;;;;;;5.90;3.63;;;;;;;;;;5012976;28;20049;-76
2020/12/25 04:13:40;;;;;;;4.93;3.88;;;;;;;;;;5012950;28;20021;-76
2020/12/25 04:16:06;;;;;;;6.00;4.35;;;;;;;;;;5012214;28;20026;-75
2020/12/25 04:18:32;;;;;;;5.97;3.83;;;;;;;;;;5012856;28;20030;-75
2020/12/25 04:20:58;;;;;;;5.38;3.45;;;;;;;;;;5012802;28;20022;-75
2020/12/25 04:23:25;;;;;;;5.85;3.40;;;;;;;;;;4995334;28;20501;-75
2020/12/25 04:25:51;;;;;;;4.25;3.08;;;;;;;;;;5012673;28;20363;-75
2020/12/25 04:28:17;;;;;;;5.15;3.13;;;;;;;;;;5012717;28;20592;-75
2020/12/25 04:30:43;;;;;;;5.85;3.70;;;;;;;;;;5016915;28;20080;-75
2020/12/25 04:33:09;;;;;;;5.68;3.50;;;;;;;;;;5019357;28;20030;-75
2020/12/25 04:35:35;;;;;;;5.50;3.60;;;;;;;;;;5019455;28;20030;-75
2020/12/25 04:38:01;;;;;;;7.00;4.95;;;;;;;;;;5019379;28;20037;-75
2020/12/25 04:40:27;;;;;;;5.40;3.88;;;;;;;;;;5019237;28;20037;-75
2020/12/25 04:42:55;;;;;;;4.65;3.20;;;;;;;;;;5019345;28;20030;-75
2020/12/25 04:45:22;;;;;;;4.32;3.03;;;;;;;;;;5019058;28;20030;-75
2020/12/25 04:47:48;;;;;;;2.90;2.30;;;;;;;;;;5019212;28;20570;-75
2020/12/25 04:50:14;;;;;;;4.30;2.75;;;;;;;;;;5019102;28;20022;-75
2020/12/25 04:52:40;;;;;;;2.88;2.10;;;;;;;;;;5018886;28;20034;-75
2020/12/25 04:55:06;;;;;;;2.80;1.95;;;;;;;;;;5019243;28;20022;-75
2020/12/25 04:57:33;;;;;;;2.72;1.90;;;;;;;;;;5019062;28;20022;-75
2020/12/25 04:59:59;;;;;;;2.67;1.77;;;;;;;;;;5018921;28;20486;-75
2020/12/25 05:02:25;;;;;;;2.70;1.88;;;;;;;;;;5019459;28;20034;-75
2020/12/25 05:04:51;;;;;;;2.42;1.80;;;;;;;;;;5018828;28;20022;-75
2020/12/25 05:07:18;;;;;;;3.15;1.63;;;;;;;;;;5018878;28;20125;-75
2020/12/25 05:09:44;;;;;;;2.38;1.75;;;;;;;;;;5018970;28;20026;-75
2020/12/25 05:12:11;;;;;;;1.77;1.30;;;;;;;;;;5019011;28;20026;-76
2020/12/25 05:14:41;;;;;;;2.58;1.65;;;;;;;;;;5018709;28;20052;-75
2020/12/25 05:17:09;;;;;;;1.65;1.42;;;;;;;;;;5018989;28;20026;-76
2020/12/25 05:19:35;;;;;;;2.40;1.60;;;;;;;;;;5018930;28;20033;-76
2020/12/25 05:22:02;;;;;;;2.65;1.52;;;;;;;;;;5018926;28;20026;-76
2020/12/25 05:24:35;;;;;;;1.73;1.45;;;;;;;;;;5018974;28;20034;-76
2020/12/25 05:27:01;;;;;;;2.28;1.35;;;;;;;;;;5018805;28;20036;-76
2020/12/25 05:29:28;;;;;;;2.22;1.52;;;;;;;;;;5018953;28;20025;-76
2020/12/25 05:31:55;;;;;;;1.60;1.15;;;;;;;;;;5019039;28;20021;-76
2020/12/25 05:34:22;;;;;;;2.78;1.30;;;;;;;;;;5018708;28;20098;-76
2020/12/25 05:36:55;;;;;;;1.95;1.58;;;;;;;;;;5018795;28;20536;-77
2020/12/25 05:39:28;;;;;;;2.53;1.48;;;;;;;;;;5018773;28;20466;-76
2020/12/25 05:41:59;;;;;;;2.80;1.65;;;;;;;;;;5016836;28;20394;-77
2020/12/25 05:44:26;;;;;;;2.28;1.58;;;;;;;;;;5015747;28;20033;-76
2020/12/25 05:46:52;;;;;;;1.88;1.55;;;;;;;;;;5015459;28;20045;-76
2020/12/25 05:49:18;;;;;;;2.17;1.63;;;;;;;;;;5015508;28;20049;-76
2020/12/25 05:51:48;;;;;;;2.30;1.50;;;;;;;;;;4997749;28;20429;-76
2020/12/25 05:54:21;;;;;;;1.60;1.50;;;;;;;;;;5015308;28;20104;-77
2020/12/25 05:56:51;;;;;;;2.60;1.55;;;;;;;;;;5015454;28;20018;-77
2020/12/25 05:59:21;;;;;;;1.98;1.42;;;;;;;;;;5015157;28;20525;-77
2020/12/25 06:01:48;;;;;;;2.95;1.70;;;;;;;;;;4998093;28;20946;-76
2020/12/25 06:04:14;;;;;;;4.30;2.10;;;;;;;;;;5015224;28;20030;-77
2020/12/25 06:06:40;;;;;;;2.65;1.70;;;;;;;;;;5015155;28;20096;-77
2020/12/25 06:09:06;;;;;;;2.60;1.60;;;;;;;;;;5015100;28;20469;-76
2020/12/25 06:11:33;;;;;;;2.30;1.42;;;;;;;;;;5015057;28;20052;-76
2020/12/25 06:13:59;;;;;;;4.18;1.70;;;;;;;;;;5015123;28;20351;-76
2020/12/25 06:16:27;;;;;;;3.33;2.20;;;;;;;;;;5014994;28;20029;-76
2020/12/25 06:18:56;;;;;;;2.17;1.80;;;;;;;;;;5015139;28;20033;-77
2020/12/25 06:21:41;;;;;;;2.45;1.70;;;;;;;;;;5014860;28;20014;-76
2020/12/25 06:24:09;;;;;;;7.28;1.70;;;;;;;;;;5014821;28;20076;-77
2020/12/25 06:26:36;;;;;;;4.55;2.10;;;;;;;;;;4997168;28;20504;-76
2020/12/25 06:29:03;;;;;;;6.05;1.90;;;;;;;;;;5014847;28;20035;-76
2020/12/25 06:31:41;;;;;;;4.18;1.80;;;;;;;;;;5014626;28;20022;-76
2020/12/25 06:34:07;;;;;;;2.63;1.48;;;;;;;;;;5014664;28;20038;-76
2020/12/25 06:36:33;;;;;;;3.47;2.10;;;;;;;;;;5014726;28;20022;-76
2020/12/25 06:39:03;;;;;;;3.20;2.10;;;;;;;;;;5014559;28;20429;-77
2020/12/25 06:41:29;;;;;;;3.38;1.73;;;;;;;;;;5014604;28;20420;-76
2020/12/25 06:43:55;;;;;;;4.20;1.60;;;;;;;;;;5014655;28;20033;-77
2020/12/25 06:46:27;;;;;;;2.55;2.03;;;;;;;;;;5014432;28;20037;-76
2020/12/25 06:48:53;;;;;;;3.55;1.50;;;;;;;;;;5014618;28;20409;-76
2020/12/25 06:51:22;;;;;;;3.67;1.48;;;;;;;;;;5014392;28;20021;-76
2020/12/25 06:53:49;;;;;;;5.68;1.98;;;;;;;;;;5013602;28;20152;-76
2020/12/25 06:56:16;;;;;;;5.30;1.80;;;;;;;;;;5014299;28;20033;-76
2020/12/25 06:58:44;;;;;;;3.45;1.52;;;;;;;;;;5014220;28;20069;-76
2020/12/25 07:01:11;;;;;;;6.18;1.73;;;;;;;;;;5014210;28;20370;-77
2020/12/25 07:03:38;;;;;;;3.63;1.60;;;;;;;;;;5014115;28;20025;-77
2020/12/25 07:06:05;;;;;;;3.85;2.10;;;;;;;;;;5013983;28;20030;-76
2020/12/25 07:08:34;;;;;;;2.28;1.63;;;;;;;;;;5013982;28;20108;-77
2020/12/25 07:11:07;;;;;;;3.33;1.80;;;;;;;;;;5014050;28;20025;-77
2020/12/25 07:13:34;;;;;;;2.53;1.70;;;;;;;;;;5008256;28;20014;-76
2020/12/25 07:16:03;;;;;;;2.83;1.52;;;;;;;;;;5013560;28;20358;-75
2020/12/25 07:18:29;;;;;;;5.10;1.80;;;;;;;;;;5013878;28;20097;-76
2020/12/25 07:21:02;;;;;;;2.05;1.55;;;;;;;;;;5012904;28;20145;-76
2020/12/25 07:23:28;;;;;;;2.03;1.83;;;;;;;;;;5012626;28;20026;-76
2020/12/25 07:26:01;;;;;;;3.85;1.67;;;;;;;;;;5013382;28;20030;-76
2020/12/25 07:28:28;;;;;;;3.47;1.52;;;;;;;;;;5013253;28;20355;-76
2020/12/25 07:30:54;;;;;;;6.40;1.83;;;;;;;;;;5013684;28;20026;-76
2020/12/25 07:33:21;;;;;;;4.07;1.70;;;;;;;;;;5013431;28;20072;-76
2020/12/25 07:35:47;;;;;;;2.10;1.30;;;;;;;;;;5013565;28;20718;-77
2020/12/25 07:38:14;;;;;;;2.58;1.35;;;;;;;;;;5013330;28;20609;-77
2020/12/25 07:40:41;;;;;;;2.55;1.17;;;;;;;;;;5013378;28;20097;-77
2020/12/25 07:43:07;;;;;;;2.72;1.17;;;;;;;;;;5008659;28;20394;-76
2020/12/25 07:45:34;;;;;;;3.47;1.15;;;;;;;;;;4990942;28;20061;-76
2020/12/25 07:48:04;;;;;;;2.80;1.30;;;;;;;;;;4991143;28;20030;-76
2020/12/25 07:50:34;;;;;;;2.38;1.20;;;;;;;;;;4991026;28;20072;-76
2020/12/25 07:53:00;;;;;;;4.82;1.50;;;;;;;;;;4991120;28;20050;-76
2020/12/25 07:55:28;;;;;;;4.03;1.50;;;;;;;;;;4990874;28;20394;-76
2020/12/25 07:57:54;;;;;;;3.25;1.80;;;;;;;;;;4991198;28;20037;-76
2020/12/25 08:00:20;;;;;;;2.90;1.50;;;;;;;;;;4990950;28;20038;-76
2020/12/25 08:02:48;;;;;;;4.80;1.25;;;;;;;;;;4991089;28;20033;-76
2020/12/25 08:05:14;;;;;;;4.45;1.30;;;;;;;;;;4989029;28;21431;-75
2020/12/25 08:07:41;;;;;;;3.97;2.47;;;;;;;;;;5009211;28;20497;-75
2020/12/25 08:10:09;;;;;;;5.47;1.80;;;;;;;;;;5009990;28;20087;-75
2020/12/25 08:12:35;;;;;;;5.55;1.80;;;;;;;;;;5009816;28;20112;-76
2020/12/25 08:15:01;;;;;;;3.63;2.53;;;;;;;;;;5010214;28;20026;-75
2020/12/25 08:17:28;;;;;;;3.05;1.90;;;;;;;;;;5010360;28;20029;-75
2020/12/25 08:19:54;;;;;;;3.10;1.23;;;;;;;;;;5010318;28;20034;-76
2020/12/25 08:22:20;;;;;;;1.05;0.93;;;;;;;;;;5010256;28;20022;-75
2020/12/25 08:24:46;;;;;;;2.65;1.48;;;;;;;;;;5009917;28;20461;-75
2020/12/25 08:27:16;;;;;;;1.67;1.10;;;;;;;;;;5010150;28;20066;-76
2020/12/25 08:29:42;;;;;;;2.92;1.00;;;;;;;;;;5010178;28;20080;-75
2020/12/25 08:32:09;;;;;;;1.80;1.17;;;;;;;;;;5009712;28;20034;-76
2020/12/25 08:34:35;;;;;;;1.92;1.05;;;;;;;;;;5009704;28;20053;-75
2020/12/25 08:37:04;;;;;;;3.13;1.40;;;;;;;;;;5009950;28;20072;-76
2020/12/25 08:39:34;;;;;;;3.58;1.58;;;;;;;;;;5010000;28;20034;-76
2020/12/25 08:42:00;;;;;;;4.95;1.58;;;;;;;;;;5010105;28;20037;-76
2020/12/25 08:44:27;;;;;;;1.80;1.30;;;;;;;;;;4978763;28;20525;-75
2020/12/25 08:47:11;;;;;;;1.55;0.90;;;;;;;;;;4990822;28;20042;-76
2020/12/25 08:49:37;;;;;;;;;;;;;;;;;;4990885;28;20023;-76
2020/12/25 08:52:03;;;;;;;2.08;0.90;;;;;;;;;;4990480;28;20444;-76
2020/12/25 08:54:30;;;;;;;1.50;0.98;;;;;;;;;;4990228;28;20022;-76
2020/12/25 08:56:56;;;;;;;2.13;0.98;;;;;;;;;;4972803;28;20042;-76
2020/12/25 08:59:22;;;;;;;5.03;2.20;;;;;;;;;;4990036;28;20059;-75
2020/12/25 09:01:50;;;;;;;2.55;1.05;;;;;;;;;;4990149;28;20077;-76
2020/12/25 09:04:18;;;;;;;1.52;1.00;;;;;;;;;;4989960;28;20030;-75
2020/12/25 09:06:44;;;;;;;1.55;0.90;;;;;;;;;;4989883;28;20035;-75
2020/12/25 09:09:10;;;;;;;2.95;1.35;;;;;;;;;;4990413;28;20046;-77
2020/12/25 09:11:36;;;;;;;3.03;1.35;;;;;;;;;;4990331;28;20035;-76
2020/12/25 09:14:03;;;;;;;1.92;0.90;;;;;;;;;;4990213;28;20526;-76
2020/12/25 09:16:29;;;;;;;4.72;1.05;;;;;;;;;;4991356;28;20098;-75
2020/12/25 09:18:56;;;;;;;2.92;0.88;;;;;;;;;;4993591;28;20034;-76
2020/12/25 09:21:24;;;;;;;3.33;1.50;;;;;;;;;;4993902;28;20035;-76
2020/12/25 09:23:50;;;;;;;3.20;1.20;;;;;;;;;;4993856;28;20356;-76
2020/12/25 09:26:16;;;;;;;3.92;0.93;;;;;;;;;;4992910;28;20033;-76
2020/12/25 09:28:42;;;;;;;2.55;1.00;;;;;;;;;;4993566;28;20030;-76
2020/12/25 09:31:09;;;;;;;34.30;3.25;;;;;;;;;;4976022;28;20081;-76
2020/12/25 09:33:36;;;;;;;16.50;1.90;;;;;;;;;;4993791;28;20744;-76
2020/12/25 09:36:03;;;;;;;2.35;0.90;;;;;;;;;;4993578;28;20474;-76
2020/12/25 09:38:30;;;;;;;2.45;1.20;;;;;;;;;;4993564;28;20057;-75
2020/12/25 09:40:56;;;;;;;2.10;1.33;;;;;;;;;;4993358;28;20780;-76
2020/12/25 09:43:22;;;;;;;2.50;1.75;;;;;;;;;;4998157;28;20494;-76
2020/12/25 09:45:48;;;;;;;2.17;0.98;;;;;;;;;;5012781;28;20038;-76
2020/12/25 09:48:14;;;;;;;2.15;0.98;;;;;;;;;;5012866;28;20036;-76
2020/12/25 09:50:42;;;;;;;1.27;0.90;;;;;;;;;;5012792;28;20036;-76
2020/12/25 09:53:08;;;;;;;0.95;0.80;;;;;;;;;;5012682;28;20022;-76
2020/12/25 09:55:39;;;;;;;2.90;0.93;;;;;;;;;;4994970;28;20083;-76
2020/12/25 09:58:05;;;;;;;2.67;1.02;;;;;;;;;;5012723;28;20108;-76
2020/12/25 10:00:31;;;;;;;2.78;0.95;;;;;;;;;;5012676;28;20481;-77
2020/12/25 10:02:58;;;;;;;1.75;0.77;;;;;;;;;;5012514;28;20044;-76
2020/12/25 10:05:24;;;;;;;4.00;0.93;;;;;;;;;;5012758;28;20029;-77
2020/12/25 10:07:52;;;;;;;2.88;1.00;;;;;;;;;;5012246;28;20030;-76
2020/12/25 10:10:19;;;;;;;2.72;1.10;;;;;;;;;;5012330;28;20022;-77
2020/12/25 10:12:46;;;;;;;3.88;0.90;;;;;;;;;;5012307;28;20021;-77
2020/12/25 10:15:12;;;;;;;1.73;0.80;;;;;;;;;;5012194;28;20022;-76
2020/12/25 10:17:38;;;;;;;1.52;1.23;;;;;;;;;;5012398;28;20049;-76
2020/12/25 10:20:04;;;;;;;2.30;1.30;;;;;;;;;;5012144;28;20026;-76
2020/12/25 10:22:30;;;;;;;2.78;1.60;;;;;;;;;;4994827;28;20025;-77
2020/12/25 10:24:56;;;;;;;2.83;1.58;;;;;;;;;;5012177;28;20045;-76
2020/12/25 10:27:24;;;;;;;3.22;1.85;;;;;;;;;;5011384;28;20045;-77
2020/12/25 10:29:50;;;;;;;7.15;2.60;;;;;;;;;;5011947;28;20096;-76
2020/12/25 10:32:16;;;;;;;4.22;1.90;;;;;;;;;;4994052;28;20466;-77
2020/12/25 10:34:42;;;;;;;3.65;1.80;;;;;;;;;;5011897;28;20032;-77
2020/12/25 10:37:08;;;;;;;3.35;1.50;;;;;;;;;;4994236;28;20117;-77
2020/12/25 10:39:34;;;;;;;2.92;1.40;;;;;;;;;;5011955;28;20089;-77
2020/12/25 10:42:00;;;;;;;3.20;1.35;;;;;;;;;;5011967;28;20149;-76
2020/12/25 10:44:26;;;;;;;2.80;1.70;;;;;;;;;;4998032;28;20495;-76
2020/12/25 10:46:58;;;;;;;3.25;1.30;;;;;;;;;;4992386;28;20049;-77
2020/12/25 10:49:24;;;;;;;3.47;1.38;;;;;;;;;;4992542;28;20029;-77
2020/12/25 10:51:50;;;;;;;1.52;1.30;;;;;;;;;;4974659;28;20022;-76
2020/12/25 10:54:16;;;;;;;2.65;1.30;;;;;;;;;;4992151;28;20457;-75
2020/12/25 10:56:42;;;;;;;2.45;1.30;;;;;;;;;;4991475;28;20061;-76
2020/12/25 10:59:08;;;;;;;5.20;1.48;;;;;;;;;;4974398;28;20058;-76
2020/12/25 11:01:35;;;;;;;3.63;1.80;;;;;;;;;;4992143;28;20030;-76
2020/12/25 11:04:01;;;;;;;2.72;1.58;;;;;;;;;;4991981;28;20165;-76
2020/12/25 11:06:33;;;;;;;2.85;1.73;;;;;;;;;;4991913;28;20038;-76
2020/12/25 11:08:59;;;;;;;5.25;1.73;;;;;;;;;;4974345;28;20041;-76
2020/12/25 11:11:26;;;;;;;2.70;1.77;;;;;;;;;;4992016;28;20034;-76
2020/12/25 11:13:52;;;;;;;2.92;2.28;;;;;;;;;;4991912;28;20493;-76
2020/12/25 11:16:25;;;;;;;2.78;2.10;;;;;;;;;;4991469;28;20030;-76
2020/12/25 11:18:52;;;;;;;3.63;2.15;;;;;;;;;;4991486;28;20027;-76
2020/12/25 11:21:21;;;;;;;3.75;1.90;;;;;;;;;;4991648;28;20033;-76
2020/12/25 11:23:48;;;;;;;3.83;2.38;;;;;;;;;;4991391;28;20033;-76
2020/12/25 11:26:28;;;;;;;5.28;2.33;;;;;;;;;;4991471;28;20045;-76
2020/12/25 11:28:55;;;;;;;5.07;2.10;;;;;;;;;;4991846;28;20438;-75
2020/12/25 11:31:21;;;;;;;5.18;2.65;;;;;;;;;;4991329;28;20038;-76
2020/12/25 11:33:48;;;;;;;4.90;2.78;;;;;;;;;;4991689;28;20378;-76
2020/12/25 11:36:21;;;;;;;5.45;2.40;;;;;;;;;;4974144;28;20030;-75
2020/12/25 11:38:47;;;;;;;3.70;2.90;;;;;;;;;;4991139;28;20033;-76
2020/12/25 11:41:14;;;;;;;6.43;3.05;;;;;;;;;;4991389;28;20073;-76
2020/12/25 11:43:40;;;;;;;4.72;2.80;;;;;;;;;;4998404;28;20092;-76
2020/12/25 11:46:07;;;;;;;6.10;2.83;;;;;;;;;;5010677;28;20034;-76
2020/12/25 11:48:33;;;;;;;9.02;2.97;;;;;;;;;;5010616;28;20041;-76
2020/12/25 11:50:59;;;;;;;4.03;2.60;;;;;;;;;;5010572;28;20504;-76
2020/12/25 11:53:26;;;;;;;4.07;2.67;;;;;;;;;;4993410;28;20049;-76
2020/12/25 11:55:52;;;;;;;7.25;2.80;;;;;;;;;;5010659;28;20413;-76
2020/12/25 11:58:18;;;;;;;4.15;2.50;;;;;;;;;;5010548;28;20034;-76
2020/12/25 12:00:45;;;;;;;3.42;2.60;;;;;;;;;;5010479;28;20060;-76
2020/12/25 12:03:11;;;;;;;5.70;2.72;;;;;;;;;;5010617;28;20026;-76
2020/12/25 12:05:40;;;;;;;5.78;3.00;;;;;;;;;;5010735;28;20029;-77
2020/12/25 12:08:07;;;;;;;5.82;2.70;;;;;;;;;;5010082;28;20080;-77
2020/12/25 12:10:33;;;;;;;5.00;2.47;;;;;;;;;;5010388;28;20025;-76
2020/12/25 12:12:59;;;;;;;4.20;2.63;;;;;;;;;;5010489;28;20037;-76
2020/12/25 12:15:25;;;;;;;4.22;3.28;;;;;;;;;;5010603;28;20148;-76
2020/12/25 12:17:51;;;;;;;5.13;3.10;;;;;;;;;;5010387;28;20456;-76
2020/12/25 12:20:17;;;;;;;4.47;3.20;;;;;;;;;;4992582;28;20720;-77
2020/12/25 12:22:43;;;;;;;5.22;3.13;;;;;;;;;;5010649;28;20026;-77
2020/12/25 12:25:09;;;;;;;6.07;2.40;;;;;;;;;;5010332;28;20025;-77
2020/12/25 12:27:35;;;;;;;4.45;2.75;;;;;;;;;;5010234;28;20067;-76
2020/12/25 12:30:02;;;;;;;4.03;2.55;;;;;;;;;;5010299;28;20033;-76
2020/12/25 12:32:28;;;;;;;3.40;2.70;;;;;;;;;;5009978;28;20052;-75
2020/12/25 12:34:54;;;;;;;3.15;2.40;;;;;;;;;;4992635;28;20120;-75
2020/12/25 12:37:20;;;;;;;4.95;2.90;;;;;;;;;;5010109;28;20060;-76
2020/12/25 12:39:46;;;;;;;3.90;2.40;;;;;;;;;;5010254;28;20033;-76
2020/12/25 12:42:12;;;;;;;3.20;2.45;;;;;;;;;;5009804;28;20023;-76
2020/12/25 12:44:38;;;;;;;3.20;2.42;;;;;;;;;;4994632;28;20494;-76
2020/12/25 12:47:04;;;;;;;5.57;2.65;;;;;;;;;;4990567;28;20077;-76
2020/12/25 12:49:30;;;;;;;4.45;2.40;;;;;;;;;;4990667;28;20347;-77
2020/12/25 12:51:57;;;;;;;4.63;2.50;;;;;;;;;;4992661;28;20031;-77
2020/12/25 12:54:23;;;;;;;4.07;2.50;;;;;;;;;;4994281;28;20475;-76
2020/12/25 12:56:49;;;;;;;4.00;2.13;;;;;;;;;;4993421;28;20041;-76
2020/12/25 12:59:15;;;;;;;2.47;1.73;;;;;;;;;;4994113;28;20077;-76
2020/12/25 13:01:41;;;;;;;4.43;2.42;;;;;;;;;;4993811;28;20030;-76
2020/12/25 13:04:07;;;;;;;6.20;2.38;;;;;;;;;;4991457;28;20030;-75
2020/12/25 13:06:33;;;;;;;5.03;2.45;;;;;;;;;;5011169;28;20401;-75
2020/12/25 13:08:59;;;;;;;4.75;2.28;;;;;;;;;;5013567;28;20053;-74
2020/12/25 13:11:29;;;;;;;3.70;2.20;;;;;;;;;;5013092;28;20501;-76
2020/12/25 13:13:55;;;;;;;3.35;2.08;;;;;;;;;;5013567;28;20029;-75
2020/12/25 13:16:21;;;;;;;4.35;2.15;;;;;;;;;;5013366;28;20030;-76
2020/12/25 13:18:48;;;;;;;2.85;1.90;;;;;;;;;;5013289;28;20029;-75
2020/12/25 13:21:20;;;;;;;2.40;1.90;;;;;;;;;;4995685;28;20040;-75
2020/12/25 13:23:46;;;;;;;3.80;2.22;;;;;;;;;;5013251;28;20022;-76
2020/12/25 13:26:13;;;;;;;2.90;2.00;;;;;;;;;;5012944;28;20038;-76
2020/12/25 13:28:39;;;;;;;3.47;2.30;;;;;;;;;;5013344;28;20030;-76
2020/12/25 13:31:05;;;;;;;5.25;1.77;;;;;;;;;;5012784;28;20025;-76
2020/12/25 13:33:32;;;;;;;1.70;1.60;;;;;;;;;;4995404;28;20029;-76
2020/12/25 13:35:58;;;;;;;4.65;1.80;;;;;;;;;;5013250;28;20025;-75
2020/12/25 13:38:24;;;;;;;3.03;2.13;;;;;;;;;;5013026;28;20033;-75
2020/12/25 13:40:50;;;;;;;2.53;2.10;;;;;;;;;;4995330;28;20036;-75
2020/12/25 13:43:16;;;;;;;4.18;1.80;;;;;;;;;;5008494;28;20033;-76
2020/12/25 13:45:43;;;;;;;2.53;1.70;;;;;;;;;;4993210;28;20022;-76
2020/12/25 13:48:09;;;;;;;2.15;1.80;;;;;;;;;;4993201;28;20466;-76
2020/12/25 13:50:35;;;;;;;1.90;1.40;;;;;;;;;;4993336;28;20041;-75
2020/12/25 13:53:01;;;;;;;1.95;1.50;;;;;;;;;;4993426;28;20034;-75
2020/12/25 13:55:27;;;;;;;2.88;1.55;;;;;;;;;;4993268;28;20386;-75
2020/12/25 13:57:53;;;;;;;5.10;1.77;;;;;;;;;;4993403;28;20549;-76
2020/12/25 14:00:19;;;;;;;3.15;1.70;;;;;;;;;;4992940;28;20050;-76
2020/12/25 14:02:45;;;;;;;2.30;1.77;;;;;;;;;;4992835;28;20046;-76
2020/12/25 14:05:11;;;;;;;2.45;1.83;;;;;;;;;;4992685;28;20030;-76
2020/12/25 14:07:37;;;;;;;2.92;1.50;;;;;;;;;;4975062;28;20046;-76
2020/12/25 14:10:04;;;;;;;4.80;1.98;;;;;;;;;;4992834;28;20425;-77
2020/12/25 14:12:30;;;;;;;4.90;2.05;;;;;;;;;;4992657;28;20069;-76
2020/12/25 14:14:56;;;;;;;5.28;2.10;;;;;;;;;;4993151;28;20732;-76
2020/12/25 14:17:22;;;;;;;2.35;1.65;;;;;;;;;;4993078;28;20592;-76
2020/12/25 14:19:48;;;;;;;3.55;1.90;;;;;;;;;;4992720;28;20222;-76
2020/12/25 14:22:14;;;;;;;3.17;2.00;;;;;;;;;;4992993;28;20080;-76
2020/12/25 14:24:40;;;;;;;3.58;2.30;;;;;;;;;;4975330;28;20034;-76
2020/12/25 14:27:06;;;;;;;7.05;2.90;;;;;;;;;;4992669;28;20041;-75
2020/12/25 14:29:32;;;;;;;2.92;2.17;;;;;;;;;;4992712;28;20027;-76
2020/12/25 14:31:58;;;;;;;6.72;2.42;;;;;;;;;;4992466;28;20027;-75
2020/12/25 14:34:24;;;;;;;4.03;2.20;;;;;;;;;;4992704;28;20049;-76
2020/12/25 14:36:51;;;;;;;3.45;2.42;;;;;;;;;;4992530;28;20435;-76
2020/12/25 14:39:17;;;;;;;7.07;3.25;;;;;;;;;;4992660;28;20081;-75